Time;durP1;ratioP1;P1;durP2;ratioP2;P2;SDS_P1;SDS_P2;PMS_P1;PMS_P2;Temp;Humidity;BMP_temperature;BMP_pressure;BME280_temperature;BME280_humidity;BME280_pressure;Samples;Min_cycle;Max_cycle;Signal;HPM_P1;HPM_P2
2022/06/19 00:02:31;;;;;;;22.20;3.35;;;;;;;;;;5009998;28;20022;-94
2022/06/19 00:05:03;;;;;;;15.82;3.63;;;;;;;;;;5010924;28;20026;-93
2022/06/19 00:07:30;;;;;;;24.23;4.32;;;;;;;;;;5006968;28;20022;-93
2022/06/19 00:09:56;;;;;;;21.50;4.10;;;;;;;;;;5008315;28;20023;-93
2022/06/19 00:12:22;;;;;;;23.02;4.93;;;;;;;;;;5007765;28;20023;-93
2022/06/19 00:14:48;;;;;;;19.25;3.65;;;;;;;;;;5009128;28;20031;-93
2022/06/19 00:17:18;;;;;;;16.40;3.78;;;;;;;;;;5011272;28;20038;-92
2022/06/19 00:19:47;;;;;;;20.20;4.15;;;;;;;;;;5017924;28;20007;-94
2022/06/19 00:22:13;;;;;;;16.00;3.35;;;;;;;;;;5018645;28;20014;-94
2022/06/19 00:24:45;;;;;;;21.20;4.05;;;;;;;;;;5017976;28;20011;-92
2022/06/19 00:27:23;;;;;;;16.48;3.97;;;;;;;;;;5018110;28;20015;-93
2022/06/19 00:29:52;;;;;;;25.38;3.92;;;;;;;;;;5009289;28;20085;-92
2022/06/19 00:32:30;;;;;;;;;;;;;;;;;;;;;
2022/06/19 00:34:56;;;;;;;21.48;4.93;;;;;;;;;;5010509;28;20047;-94
2022/06/19 00:37:34;;;;;;;23.38;4.28;;;;;;;;;;5011570;28;20027;-91
2022/06/19 00:42:38;;;;;;;32.63;4.60;;;;;;;;;;5137860;22;20045;-94
2022/06/19 00:45:15;;;;;;;23.45;4.28;;;;;;;;;;5046889;28;20056;-93
2022/06/19 00:47:41;;;;;;;26.08;4.32;;;;;;;;;;5048012;28;20009;-93
2022/06/19 00:50:25;;;;;;;29.25;4.85;;;;;;;;;;5049754;28;20041;-94
2022/06/19 00:53:12;;;;;;;32.70;6.00;;;;;;;;;;5032225;28;20081;-93
2022/06/19 00:55:40;;;;;;;35.83;5.13;;;;;;;;;;5033897;28;20037;-95
2022/06/19 00:58:28;;;;;;;25.23;4.85;;;;;;;;;;5032060;28;20049;-93
2022/06/19 01:00:58;;;;;;;28.55;5.20;;;;;;;;;;5031757;28;20082;-93
2022/06/19 01:03:31;;;;;;;26.05;3.97;;;;;;;;;;5031537;28;20130;-93
2022/06/19 01:05:57;;;;;;;31.40;5.28;;;;;;;;;;5050889;28;20028;-93
2022/06/19 01:08:25;;;;;;;22.00;4.70;;;;;;;;;;5030506;28;20021;-93
2022/06/19 01:10:53;;;;;;;30.42;5.07;;;;;;;;;;5048575;28;20021;-94
2022/06/19 01:13:19;;;;;;;25.88;4.38;;;;;;;;;;5031224;28;20025;-93
2022/06/19 01:15:46;;;;;;;24.05;4.32;;;;;;;;;;5029673;28;20085;-94
2022/06/19 01:18:18;;;;;;;21.88;4.43;;;;;;;;;;5048348;28;20032;-92
2022/06/19 01:20:48;;;;;;;18.65;4.53;;;;;;;;;;5047864;28;20029;-94
2022/06/19 01:23:37;;;;;;;24.48;4.43;;;;;;;;;;5029135;28;20036;-93
2022/06/19 01:26:06;;;;;;;14.30;3.58;;;;;;;;;;5048056;28;20022;-92
2022/06/19 01:28:45;;;;;;;20.52;3.95;;;;;;;;;;5031027;28;20045;-92
2022/06/19 01:31:19;;;;;;;21.38;4.38;;;;;;;;;;5032233;28;20089;-94
2022/06/19 01:36:22;;;;;;;22.90;3.95;;;;;;;;;;5526911;22;20044;-96
2022/06/19 01:39:11;;;;;;;25.05;4.85;;;;;;;;;;5458573;23;20057;-96
2022/06/19 01:41:37;;;;;;;21.23;4.13;;;;;;;;;;5038004;28;20047;-96
2022/06/19 01:44:03;;;;;;;22.33;4.50;;;;;;;;;;5065292;22;20041;-96
2022/06/19 01:46:36;;;;;;;19.30;5.28;;;;;;;;;;5058636;28;20044;-96
2022/06/19 01:49:05;;;;;;;22.75;4.32;;;;;;;;;;5043499;28;20006;-96
2022/06/19 01:51:32;;;;;;;27.73;5.03;;;;;;;;;;5045143;28;20006;-96
2022/06/19 01:54:00;;;;;;;23.23;4.75;;;;;;;;;;5045592;28;20009;-96
2022/06/19 01:56:26;;;;;;;25.42;3.72;;;;;;;;;;5045359;28;20005;-96
2022/06/19 01:58:54;;;;;;;24.30;4.05;;;;;;;;;;5045337;28;20009;-96
2022/06/19 02:01:25;;;;;;;25.92;5.10;;;;;;;;;;5028741;28;20096;-96
2022/06/19 02:06:39;;;;;;;23.95;4.50;;;;;;;;;;5774918;22;20046;-96
2022/06/19 02:09:06;;;;;;;23.08;3.72;;;;;;;;;;5045024;28;20002;-96
2022/06/19 02:27:38;;;;;;;16.73;4.20;;;;;;;;;;5108496;22;20045;-96
2022/06/19 02:30:10;;;;;;;14.85;4.00;;;;;;;;;;5044383;28;20006;-95
2022/06/19 02:44:24;;;;;;;23.38;4.50;;;;;;;;;;5057394;28;20036;-93
2022/06/19 02:46:51;;;;;;;20.60;4.65;;;;;;;;;;5054293;28;20025;-95
2022/06/19 02:49:30;;;;;;;23.92;5.40;;;;;;;;;;5055534;28;20032;-95
2022/06/19 02:52:02;;;;;;;16.15;5.00;;;;;;;;;;5038298;28;20061;-95
2022/06/19 02:54:32;;;;;;;20.60;4.78;;;;;;;;;;5023554;28;20053;-93
2022/06/19 02:57:02;;;;;;;19.80;5.10;;;;;;;;;;5055394;28;20025;-93
2022/06/19 02:59:36;;;;;;;19.90;5.15;;;;;;;;;;5057085;28;20048;-95
2022/06/19 03:02:21;;;;;;;23.45;5.43;;;;;;;;;;5039747;28;20044;-94
2022/06/19 03:05:26;;;;;;;18.35;6.10;;;;;;;;;;5039501;28;20049;-94
2022/06/19 03:07:56;;;;;;;18.55;5.32;;;;;;;;;;5037499;28;20025;-94
2022/06/19 03:10:37;;;;;;;25.65;5.97;;;;;;;;;;5021737;28;20021;-94
2022/06/19 03:13:03;;;;;;;24.35;6.13;;;;;;;;;;5038762;28;20052;-94
2022/06/19 03:15:29;;;;;;;17.55;6.20;;;;;;;;;;5345244;22;20101;-95
2022/06/19 03:20:37;;;;;;;21.00;5.88;;;;;;;;;;5085275;22;20053;-93
2022/06/19 03:23:03;;;;;;;15.45;5.55;;;;;;;;;;5054572;28;20117;-94
2022/06/19 03:25:30;;;;;;;16.55;5.50;;;;;;;;;;5035596;28;20021;-94
2022/06/19 03:27:57;;;;;;;14.13;5.50;;;;;;;;;;5035705;28;20022;-93
2022/06/19 03:30:25;;;;;;;16.60;5.72;;;;;;;;;;5040774;28;20025;-93
2022/06/19 03:32:52;;;;;;;14.88;5.55;;;;;;;;;;5035013;28;20035;-94
2022/06/19 03:35:23;;;;;;;13.75;5.97;;;;;;;;;;5052492;28;20089;-92
2022/06/19 03:37:53;;;;;;;18.95;6.07;;;;;;;;;;5053374;28;20021;-94
2022/06/19 03:40:19;;;;;;;14.90;5.78;;;;;;;;;;5037748;28;20028;-92
2022/06/19 03:42:48;;;;;;;17.63;6.72;;;;;;;;;;5115206;23;20042;-93
2022/06/19 03:45:37;;;;;;;10.90;6.03;;;;;;;;;;5038355;28;20029;-96
2022/06/19 03:48:03;;;;;;;19.23;6.50;;;;;;;;;;5038097;28;20069;-96
2022/06/19 03:50:34;;;;;;;15.63;5.63;;;;;;;;;;5037499;28;20017;-94
2022/06/19 03:53:14;;;;;;;12.68;6.30;;;;;;;;;;5036492;28;20017;-92
2022/06/19 03:55:42;;;;;;;11.68;6.13;;;;;;;;;;5031326;28;20014;-94
2022/06/19 03:58:11;;;;;;;12.95;6.90;;;;;;;;;;5031526;28;20014;-92
2022/06/19 04:00:38;;;;;;;24.15;6.82;;;;;;;;;;5032227;28;20086;-93
2022/06/19 04:03:08;;;;;;;15.50;7.68;;;;;;;;;;5030414;28;20025;-92
2022/06/19 04:05:34;;;;;;;14.13;6.85;;;;;;;;;;5031030;28;20026;-93
2022/06/19 04:11:08;;;;;;;14.55;6.30;;;;;;;;;;5044181;22;20048;-87
2022/06/19 04:13:34;;;;;;;22.10;6.82;;;;;;;;;;5015664;28;20055;-86
2022/06/19 04:16:00;;;;;;;16.20;5.93;;;;;;;;;;5032995;28;20025;-86
2022/06/19 04:18:26;;;;;;;14.38;7.22;;;;;;;;;;5033637;28;20597;-87
2022/06/19 04:20:53;;;;;;;10.85;6.40;;;;;;;;;;5014847;28;20029;-87
2022/06/19 04:23:19;;;;;;;12.93;7.03;;;;;;;;;;5033176;28;20033;-87
2022/06/19 04:25:45;;;;;;;13.95;7.13;;;;;;;;;;5015513;28;20030;-86
2022/06/19 04:28:11;;;;;;;12.38;6.57;;;;;;;;;;5015095;28;20033;-86
2022/06/19 04:30:37;;;;;;;12.48;6.80;;;;;;;;;;5041347;28;20026;-86
2022/06/19 04:33:04;;;;;;;13.98;5.95;;;;;;;;;;5015321;28;20026;-87
2022/06/19 04:35:30;;;;;;;9.60;5.63;;;;;;;;;;5016301;28;20021;-86
2022/06/19 04:37:56;;;;;;;13.90;6.18;;;;;;;;;;5016460;28;20037;-86
2022/06/19 04:40:22;;;;;;;14.70;5.68;;;;;;;;;;5017074;28;20036;-86
2022/06/19 04:42:49;;;;;;;8.90;5.75;;;;;;;;;;5016967;28;20021;-86
2022/06/19 04:45:15;;;;;;;8.98;5.40;;;;;;;;;;5034714;28;20034;-86
2022/06/19 04:47:41;;;;;;;17.10;5.70;;;;;;;;;;5034151;28;20042;-86
2022/06/19 04:50:07;;;;;;;14.68;6.13;;;;;;;;;;5016886;28;20051;-86
2022/06/19 04:52:33;;;;;;;11.77;5.72;;;;;;;;;;5016375;28;20071;-86
2022/06/19 04:54:59;;;;;;;18.48;5.93;;;;;;;;;;5035142;28;20432;-86
2022/06/19 04:57:26;;;;;;;13.63;5.68;;;;;;;;;;5034284;28;20025;-87
2022/06/19 04:59:52;;;;;;;13.45;5.40;;;;;;;;;;5015368;28;20044;-87
2022/06/19 05:02:18;;;;;;;17.50;6.03;;;;;;;;;;5032482;28;20453;-87
2022/06/19 05:04:48;;;;;;;18.05;5.68;;;;;;;;;;5014898;28;20025;-87
2022/06/19 05:07:14;;;;;;;11.25;5.63;;;;;;;;;;5029277;28;20025;-87
2022/06/19 05:09:40;;;;;;;7.65;5.30;;;;;;;;;;5014622;28;20026;-88
2022/06/19 05:12:06;;;;;;;7.13;5.05;;;;;;;;;;5014187;28;20025;-87
2022/06/19 05:14:32;;;;;;;15.85;5.72;;;;;;;;;;5033075;28;20029;-88
2022/06/19 05:16:58;;;;;;;17.88;5.47;;;;;;;;;;5031881;28;20022;-87
2022/06/19 05:19:25;;;;;;;13.80;5.10;;;;;;;;;;5015096;28;20083;-87
2022/06/19 05:21:51;;;;;;;14.38;5.47;;;;;;;;;;5013964;28;20047;-87
2022/06/19 05:24:17;;;;;;;16.80;5.13;;;;;;;;;;5014477;28;20513;-86
2022/06/19 05:26:43;;;;;;;8.85;4.20;;;;;;;;;;5033642;28;20018;-86
2022/06/19 05:29:09;;;;;;;12.43;5.00;;;;;;;;;;5035883;28;20029;-86
2022/06/19 05:31:35;;;;;;;18.55;5.80;;;;;;;;;;5016679;28;20018;-86
2022/06/19 05:34:01;;;;;;;14.55;4.72;;;;;;;;;;5017554;28;20021;-87
2022/06/19 05:36:29;;;;;;;10.88;4.88;;;;;;;;;;5017273;28;20393;-86
2022/06/19 05:38:55;;;;;;;13.05;4.90;;;;;;;;;;5034853;28;20468;-87
2022/06/19 05:41:21;;;;;;;11.20;5.68;;;;;;;;;;5016032;28;20108;-87
2022/06/19 05:43:49;;;;;;;10.80;4.55;;;;;;;;;;5017293;28;20026;-87
2022/06/19 05:46:16;;;;;;;10.35;4.97;;;;;;;;;;5040085;28;20044;-87
2022/06/19 05:48:42;;;;;;;13.25;4.72;;;;;;;;;;5022178;28;20017;-87
2022/06/19 05:51:13;;;;;;;5.97;4.80;;;;;;;;;;5037744;28;20120;-87
2022/06/19 05:53:40;;;;;;;5.70;4.65;;;;;;;;;;5039972;28;20055;-87
2022/06/19 05:56:07;;;;;;;16.85;4.80;;;;;;;;;;5033417;28;20033;-87
2022/06/19 05:58:33;;;;;;;12.45;4.95;;;;;;;;;;5032400;28;20401;-87
2022/06/19 06:01:00;;;;;;;12.95;5.03;;;;;;;;;;5014299;28;20035;-87
2022/06/19 06:03:26;;;;;;;9.20;3.50;;;;;;;;;;5032092;28;20038;-86
2022/06/19 06:05:52;;;;;;;12.55;2.97;;;;;;;;;;5032014;28;20101;-86
2022/06/19 06:08:19;;;;;;;10.23;5.15;;;;;;;;;;5014039;28;20030;-86
2022/06/19 06:10:57;;;;;;;8.20;5.10;;;;;;;;;;5012575;28;20029;-87
2022/06/19 06:13:30;;;;;;;6.40;3.22;;;;;;;;;;5016317;28;20021;-87
2022/06/19 06:15:56;;;;;;;7.47;4.25;;;;;;;;;;5031190;28;20076;-87
2022/06/19 06:18:25;;;;;;;9.55;4.97;;;;;;;;;;5031607;28;20033;-87
2022/06/19 06:20:55;;;;;;;10.02;4.70;;;;;;;;;;5015311;28;20028;-87
2022/06/19 06:23:26;;;;;;;7.18;4.18;;;;;;;;;;5016948;28;20033;-87
2022/06/19 06:25:58;;;;;;;10.65;4.18;;;;;;;;;;5035217;28;20045;-86
2022/06/19 06:28:27;;;;;;;12.77;5.35;;;;;;;;;;5017216;28;20036;-86
2022/06/19 06:30:56;;;;;;;8.43;5.28;;;;;;;;;;5025297;28;20045;-87
2022/06/19 06:33:30;;;;;;;21.90;5.85;;;;;;;;;;5016298;28;20087;-87
2022/06/19 06:35:59;;;;;;;6.45;5.03;;;;;;;;;;5020471;28;20030;-86
2022/06/19 06:38:26;;;;;;;8.50;4.35;;;;;;;;;;5019796;28;20110;-87
2022/06/19 06:40:52;;;;;;;10.93;4.88;;;;;;;;;;5020412;28;20025;-86
2022/06/19 06:43:19;;;;;;;15.27;4.95;;;;;;;;;;5024735;28;20033;-86
2022/06/19 06:45:51;;;;;;;9.90;5.38;;;;;;;;;;5041992;28;20021;-86
2022/06/19 06:48:18;;;;;;;10.50;5.38;;;;;;;;;;5036822;28;20516;-86
2022/06/19 06:50:47;;;;;;;13.38;5.13;;;;;;;;;;5017747;28;20052;-85
2022/06/19 06:53:13;;;;;;;14.55;5.50;;;;;;;;;;5018193;28;20026;-86
2022/06/19 06:55:41;;;;;;;12.65;5.55;;;;;;;;;;5018273;28;20030;-86
2022/06/19 06:58:10;;;;;;;11.75;5.13;;;;;;;;;;5035362;28;20485;-86
2022/06/19 07:00:37;;;;;;;12.27;5.53;;;;;;;;;;5018416;28;20120;-86
2022/06/19 07:03:03;;;;;;;13.13;5.00;;;;;;;;;;5038207;28;20378;-86
2022/06/19 07:05:30;;;;;;;13.80;5.13;;;;;;;;;;5017876;28;20032;-86
2022/06/19 07:07:56;;;;;;;13.75;5.50;;;;;;;;;;5029918;28;20028;-84
2022/06/19 07:10:23;;;;;;;14.60;5.07;;;;;;;;;;5042268;28;20041;-86
2022/06/19 07:12:54;;;;;;;9.88;5.38;;;;;;;;;;5058172;28;20089;-86
2022/06/19 07:15:20;;;;;;;9.95;5.18;;;;;;;;;;5028430;28;20042;-87
2022/06/19 07:17:49;;;;;;;11.80;5.43;;;;;;;;;;5023557;28;20466;-87
2022/06/19 07:20:17;;;;;;;15.25;5.47;;;;;;;;;;5040309;28;20103;-87
2022/06/19 07:22:57;;;;;;;8.35;4.03;;;;;;;;;;5022671;28;20034;-86
2022/06/19 07:25:26;;;;;;;13.45;5.57;;;;;;;;;;5040151;28;20052;-87
2022/06/19 07:27:59;;;;;;;10.57;5.15;;;;;;;;;;5039607;28;20039;-86
2022/06/19 07:30:28;;;;;;;14.43;6.10;;;;;;;;;;5022658;28;20030;-87
2022/06/19 07:32:58;;;;;;;12.65;5.47;;;;;;;;;;5038389;28;20025;-87
2022/06/19 07:35:24;;;;;;;13.30;5.18;;;;;;;;;;5019904;28;20025;-87
2022/06/19 07:37:54;;;;;;;16.50;5.95;;;;;;;;;;5016355;28;20051;-84
2022/06/19 07:40:21;;;;;;;11.40;4.43;;;;;;;;;;5015598;28;20030;-86
2022/06/19 07:42:52;;;;;;;11.93;5.45;;;;;;;;;;5033628;28;20079;-87
2022/06/19 07:45:18;;;;;;;7.60;4.60;;;;;;;;;;5018614;28;20089;-87
2022/06/19 07:50:35;;;;;;;10.23;5.40;;;;;;;;;;5037469;28;20095;-87
2022/06/19 07:53:01;;;;;;;15.70;6.22;;;;;;;;;;5018104;28;20047;-86
2022/06/19 07:55:31;;;;;;;7.55;5.13;;;;;;;;;;5017310;28;20481;-86
2022/06/19 07:57:58;;;;;;;7.97;5.32;;;;;;;;;;5035245;28;20101;-87
2022/06/19 08:00:30;;;;;;;11.65;5.00;;;;;;;;;;5035313;28;20084;-86
2022/06/19 08:02:57;;;;;;;11.65;5.18;;;;;;;;;;5018248;28;20030;-87
2022/06/19 08:05:24;;;;;;;7.88;5.15;;;;;;;;;;5036026;28;20022;-87
2022/06/19 08:07:53;;;;;;;9.32;5.43;;;;;;;;;;5036400;28;20041;-87
2022/06/19 08:10:24;;;;;;;13.15;5.30;;;;;;;;;;5020285;28;20120;-87
2022/06/19 08:12:58;;;;;;;7.28;4.88;;;;;;;;;;5037602;28;20025;-87
2022/06/19 08:15:24;;;;;;;12.05;4.63;;;;;;;;;;5019521;28;20559;-87
2022/06/19 08:17:51;;;;;;;13.05;5.60;;;;;;;;;;5020008;28;20034;-87
2022/06/19 08:20:21;;;;;;;11.32;4.85;;;;;;;;;;5018772;28;20026;-87
2022/06/19 08:22:50;;;;;;;9.57;4.90;;;;;;;;;;5019892;28;20092;-87
2022/06/19 08:25:20;;;;;;;15.82;5.40;;;;;;;;;;5021408;28;20030;-87
2022/06/19 08:27:49;;;;;;;10.27;5.45;;;;;;;;;;5021415;28;20043;-87
2022/06/19 08:30:28;;;;;;;9.40;5.18;;;;;;;;;;5021463;28;20482;-87
2022/06/19 08:32:57;;;;;;;10.77;5.05;;;;;;;;;;5039593;28;20113;-87
2022/06/19 08:35:27;;;;;;;15.10;5.38;;;;;;;;;;5039157;28;20045;-88
2022/06/19 08:37:55;;;;;;;10.43;5.40;;;;;;;;;;5038770;28;20029;-87
2022/06/19 08:40:34;;;;;;;17.13;5.85;;;;;;;;;;5036619;28;20061;-87
2022/06/19 08:43:22;;;;;;;11.88;5.10;;;;;;;;;;5039706;28;20022;-87
2022/06/19 08:46:00;;;;;;;12.30;4.53;;;;;;;;;;5020342;28;20029;-87
2022/06/19 08:48:36;;;;;;;11.70;5.00;;;;;;;;;;5021468;28;20030;-87
2022/06/19 08:51:12;;;;;;;11.93;4.90;;;;;;;;;;5038839;28;20089;-87
2022/06/19 08:53:53;;;;;;;13.10;4.45;;;;;;;;;;5039022;28;20033;-88
2022/06/19 08:56:29;;;;;;;9.45;4.90;;;;;;;;;;5037799;28;20104;-87
2022/06/19 08:58:58;;;;;;;15.70;5.53;;;;;;;;;;5035634;28;20063;-86
2022/06/19 09:01:29;;;;;;;15.98;5.25;;;;;;;;;;5044225;28;20022;-87
2022/06/19 09:07:06;;;;;;;11.23;5.65;;;;;;;;;;5035197;28;20098;-87
2022/06/19 09:09:41;;;;;;;10.13;4.93;;;;;;;;;;5017281;28;20552;-87
2022/06/19 09:12:19;;;;;;;17.27;4.88;;;;;;;;;;5033972;28;20331;-87
2022/06/19 09:15:00;;;;;;;18.77;5.43;;;;;;;;;;5034321;28;20100;-87
2022/06/19 09:17:32;;;;;;;9.85;5.30;;;;;;;;;;5016354;28;20036;-86
2022/06/19 09:20:01;;;;;;;11.48;5.80;;;;;;;;;;5016281;28;20109;-87
2022/06/19 09:22:49;;;;;;;11.95;5.15;;;;;;;;;;5016429;28;20211;-87
2022/06/19 09:25:40;;;;;;;16.00;5.30;;;;;;;;;;5016154;28;20022;-86
2022/06/19 09:28:20;;;;;;;11.43;5.07;;;;;;;;;;5015521;28;20022;-86
2022/06/19 09:31:15;;;;;;;6.15;4.78;;;;;;;;;;5015484;28;20092;-86
2022/06/19 09:33:42;;;;;;;14.63;5.35;;;;;;;;;;5019844;28;20378;-87
2022/06/19 09:36:27;;;;;;;7.68;4.05;;;;;;;;;;5015764;28;20025;-87
2022/06/19 09:39:13;;;;;;;9.15;5.03;;;;;;;;;;5015700;28;20047;-87
2022/06/19 09:41:46;;;;;;;12.85;5.15;;;;;;;;;;5033133;28;20057;-86
2022/06/19 09:44:25;;;;;;;17.05;4.75;;;;;;;;;;5015090;28;20083;-87
2022/06/19 09:46:57;;;;;;;11.88;5.22;;;;;;;;;;5032427;28;20032;-87
2022/06/19 09:49:28;;;;;;;13.10;6.22;;;;;;;;;;5015055;28;20048;-87
2022/06/19 09:52:05;;;;;;;14.50;5.18;;;;;;;;;;5018231;28;20087;-87
2022/06/19 09:54:38;;;;;;;14.80;4.63;;;;;;;;;;5022469;28;20026;-86
2022/06/19 09:57:28;;;;;;;10.75;4.78;;;;;;;;;;5033929;28;20029;-87
2022/06/19 10:00:11;;;;;;;11.02;4.68;;;;;;;;;;5033683;28;20030;-88
2022/06/19 10:02:49;;;;;;;17.63;5.03;;;;;;;;;;5016357;28;20065;-87
2022/06/19 10:05:37;;;;;;;15.63;5.85;;;;;;;;;;5015726;28;20029;-88
2022/06/19 10:08:16;;;;;;;10.13;5.32;;;;;;;;;;5018517;28;20021;-87
2022/06/19 11:54:46;;;;;;;12.65;5.22;;;;;;;;;;5018731;28;20046;-91
2022/06/19 11:57:27;;;;;;;15.82;4.78;;;;;;;;;;5020605;28;20042;-92
2022/06/19 11:59:56;;;;;;;15.35;5.30;;;;;;;;;;5003773;28;20022;-94
2022/06/19 12:02:22;;;;;;;15.93;6.10;;;;;;;;;;5000411;28;20105;-92
2022/06/19 12:04:53;;;;;;;18.67;5.03;;;;;;;;;;4998793;28;20050;-90
2022/06/19 12:07:21;;;;;;;14.23;5.47;;;;;;;;;;4999927;28;20033;-91
2022/06/19 12:09:55;;;;;;;12.43;5.35;;;;;;;;;;4983753;28;20050;-93
2022/06/19 12:16:19;;;;;;;16.45;5.93;;;;;;;;;;4996158;28;20046;-94
2022/06/19 12:18:49;;;;;;;22.38;5.38;;;;;;;;;;4983783;28;20063;-94
2022/06/19 12:29:08;;;;;;;22.65;5.82;;;;;;;;;;5027446;28;20066;-92
2022/06/19 12:31:38;;;;;;;22.30;5.63;;;;;;;;;;4998425;28;20031;-93
2022/06/19 12:34:04;;;;;;;;;;;;;;;;;;5001755;28;20030;-89
2022/06/19 12:36:33;;;;;;;12.00;4.13;;;;;;;;;;4999661;28;19960;-92
2022/06/19 12:38:59;;;;;;;7.38;4.13;;;;;;;;;;4980650;28;20081;-92
2022/06/19 12:41:26;;;;;;;17.95;5.63;;;;;;;;;;4984005;28;20088;-92
2022/06/19 12:43:58;;;;;;;11.73;4.70;;;;;;;;;;4982306;28;20049;-91
2022/06/19 12:46:29;;;;;;;11.63;5.65;;;;;;;;;;4986606;28;20031;-92
2022/06/19 12:49:18;;;;;;;12.52;4.55;;;;;;;;;;4984876;28;20076;-93
2022/06/19 12:52:21;;;;;;;13.77;5.07;;;;;;;;;;4977281;28;20090;-93
2022/06/19 12:54:59;;;;;;;20.80;5.13;;;;;;;;;;4965200;28;20033;-93
2022/06/19 12:57:48;;;;;;;16.98;5.20;;;;;;;;;;5008044;28;20023;-95
2022/06/19 13:55:20;;;;;;;11.45;4.07;;;;;;;;;;5003642;28;20061;-91
2022/06/19 13:57:58;;;;;;;16.13;4.93;;;;;;;;;;5008910;28;20030;-93
2022/06/19 14:00:40;;;;;;;18.25;5.20;;;;;;;;;;5006167;28;20105;-92
2022/06/19 14:04:45;;;;;;;15.13;4.53;;;;;;;;;;4990693;28;20050;-94
2022/06/19 14:06:33;;;;;;;10.65;3.65;;;;;;;;;;5009960;28;20039;-93
2022/06/19 14:09:07;;;;;;;14.25;4.40;;;;;;;;;;5011752;28;20019;-93
2022/06/19 14:19:36;;;;;;;13.50;4.45;;;;;;;;;;5311635;23;20053;-95
2022/06/19 14:22:02;;;;;;;12.77;4.25;;;;;;;;;;5044391;28;20006;-94
2022/06/19 14:24:47;;;;;;;15.60;4.78;;;;;;;;;;5024288;28;20056;-95
2022/06/19 14:27:34;;;;;;;13.70;4.22;;;;;;;;;;5041237;28;20022;-93
2022/06/19 14:30:02;;;;;;;16.88;4.75;;;;;;;;;;5022076;28;20022;-93
2022/06/19 14:32:48;;;;;;;13.23;4.53;;;;;;;;;;5040432;28;20021;-95
2022/06/19 14:35:20;;;;;;;12.02;4.32;;;;;;;;;;5022999;28;20026;-95
2022/06/19 14:38:08;;;;;;;13.07;4.60;;;;;;;;;;5040188;28;20014;-94
2022/06/19 14:40:36;;;;;;;13.73;4.07;;;;;;;;;;5023107;28;20010;-96
2022/06/19 14:43:11;;;;;;;16.35;5.28;;;;;;;;;;5066044;23;20041;-96
2022/06/19 14:45:56;;;;;;;11.00;4.75;;;;;;;;;;5061629;28;20009;-96
2022/06/19 14:48:31;;;;;;;16.88;4.32;;;;;;;;;;5060013;28;20105;-96
2022/06/19 14:51:20;;;;;;;7.07;4.47;;;;;;;;;;5059898;28;20017;-96
2022/06/19 14:54:05;;;;;;;14.50;4.68;;;;;;;;;;5042432;28;20029;-94
2022/06/19 14:56:42;;;;;;;13.85;4.43;;;;;;;;;;5026556;28;20085;-92
2022/06/19 14:59:19;;;;;;;14.18;5.32;;;;;;;;;;5025122;28;20056;-92
2022/06/19 15:01:49;;;;;;;9.77;4.53;;;;;;;;;;5019044;28;20486;-93
2022/06/19 15:09:59;;;;;;;17.10;5.45;;;;;;;;;;5240991;23;20053;-91
2022/06/19 15:12:30;;;;;;;18.83;5.30;;;;;;;;;;4982991;28;20110;-92
2022/06/19 15:15:21;;;;;;;13.15;4.30;;;;;;;;;;5002669;28;20478;-93
2022/06/19 15:18:15;;;;;;;14.18;5.03;;;;;;;;;;4982800;28;20034;-90
2022/06/19 15:20:49;;;;;;;11.00;4.15;;;;;;;;;;4978281;28;20173;-91
2022/06/19 15:23:28;;;;;;;10.93;4.55;;;;;;;;;;4982305;28;20027;-92
2022/06/19 15:26:21;;;;;;;9.30;4.60;;;;;;;;;;4981246;28;20031;-91
2022/06/19 15:28:53;;;;;;;14.77;4.32;;;;;;;;;;4980827;28;20517;-92
2022/06/19 15:31:19;;;;;;;8.23;4.63;;;;;;;;;;4986881;28;20072;-91
2022/06/19 15:33:52;;;;;;;25.90;5.30;;;;;;;;;;4984522;28;20026;-91
2022/06/19 15:36:27;;;;;;;14.18;4.18;;;;;;;;;;4982805;28;20051;-92
2022/06/19 15:39:14;;;;;;;14.52;5.53;;;;;;;;;;4978459;28;20030;-91
2022/06/19 15:42:14;;;;;;;17.08;4.30;;;;;;;;;;4982398;28;20495;-92
2022/06/19 15:45:10;;;;;;;10.88;4.43;;;;;;;;;;4949606;28;20046;-92
2022/06/19 15:48:12;;;;;;;15.45;4.88;;;;;;;;;;4979666;28;20037;-92
2022/06/19 15:50:46;;;;;;;12.02;5.38;;;;;;;;;;4997062;28;20034;-91
2022/06/19 15:53:15;;;;;;;14.25;4.88;;;;;;;;;;4977756;28;20070;-92
2022/06/19 15:56:01;;;;;;;13.50;5.05;;;;;;;;;;4963156;28;20037;-92
2022/06/19 15:58:57;;;;;;;16.85;4.35;;;;;;;;;;4978550;28;20034;-93
2022/06/19 16:01:23;;;;;;;21.90;5.13;;;;;;;;;;4961496;28;20027;-90
2022/06/19 16:04:06;;;;;;;10.95;4.20;;;;;;;;;;4968563;28;20034;-92
2022/06/19 16:06:34;;;;;;;9.65;4.25;;;;;;;;;;4978308;28;20030;-91
2022/06/19 16:09:32;;;;;;;10.27;4.55;;;;;;;;;;4977237;28;20039;-90
2022/06/19 16:12:00;;;;;;;15.77;4.57;;;;;;;;;;5034805;23;20037;-88
2022/06/19 16:14:28;;;;;;;16.73;5.55;;;;;;;;;;5055456;28;20033;-88
2022/06/19 16:20:14;;;;;;;9.88;3.80;;;;;;;;;;5039824;28;20112;-88
2022/06/19 16:22:46;;;;;;;14.98;4.82;;;;;;;;;;5067838;28;20028;-88
2022/06/19 16:25:21;;;;;;;12.63;4.78;;;;;;;;;;5040756;28;20056;-88
2022/06/19 16:27:47;;;;;;;11.35;4.63;;;;;;;;;;5057883;28;20121;-89
2022/06/19 16:30:16;;;;;;;14.43;4.90;;;;;;;;;;5037329;28;20025;-89
2022/06/19 16:32:50;;;;;;;16.20;4.63;;;;;;;;;;5037656;28;20029;-89
2022/06/19 16:44:07;;;;;;;18.85;4.03;;;;;;;;;;5045386;28;20126;-89
2022/06/19 16:46:37;;;;;;;21.27;4.25;;;;;;;;;;5049972;28;20032;-89
2022/06/19 16:49:38;;;;;;;13.20;4.22;;;;;;;;;;5053760;28;20024;-89
2022/06/19 16:52:12;;;;;;;21.40;4.32;;;;;;;;;;4991467;28;20034;-89
2022/06/19 16:55:05;;;;;;;15.15;3.55;;;;;;;;;;5045990;28;20057;-90
2022/06/19 16:57:34;;;;;;;10.35;3.58;;;;;;;;;;5037965;28;20086;-89
2022/06/19 17:00:06;;;;;;;17.92;5.00;;;;;;;;;;5037643;28;20032;-89
2022/06/19 17:02:35;;;;;;;12.63;4.22;;;;;;;;;;5034893;28;20389;-90
2022/06/19 17:05:04;;;;;;;14.20;3.97;;;;;;;;;;5034731;28;20467;-89
2022/06/19 17:08:40;;;;;;;12.73;3.88;;;;;;;;;;5034536;28;20017;-90
2022/06/19 17:13:30;;;;;;;8.40;3.50;;;;;;;;;;5032257;28;20059;-88
2022/06/19 17:19:15;;;;;;;13.25;3.70;;;;;;;;;;5049408;28;20075;-89
2022/06/19 17:22:10;;;;;;;14.32;4.10;;;;;;;;;;5044830;28;20501;-88
2022/06/19 17:24:45;;;;;;;15.43;3.50;;;;;;;;;;5045411;28;20043;-87
2022/06/19 17:27:22;;;;;;;15.50;4.13;;;;;;;;;;5051830;28;20029;-89
2022/06/19 17:30:12;;;;;;;17.90;4.05;;;;;;;;;;5030937;28;20033;-88
2022/06/19 17:35:45;;;;;;;15.70;4.47;;;;;;;;;;5017267;28;20036;-88
2022/06/19 17:38:20;;;;;;;16.02;4.57;;;;;;;;;;5033126;28;20045;-89
2022/06/19 17:40:56;;;;;;;12.80;3.35;;;;;;;;;;5051361;28;20025;-88
2022/06/19 17:43:31;;;;;;;15.00;4.35;;;;;;;;;;5034118;28;20064;-89
2022/06/19 17:45:59;;;;;;;16.02;3.78;;;;;;;;;;5052082;28;20374;-88
2022/06/19 17:48:47;;;;;;;10.52;4.10;;;;;;;;;;5033879;28;20032;-88
2022/06/19 17:51:31;;;;;;;14.13;4.30;;;;;;;;;;5033843;28;20438;-89
2022/06/19 17:54:06;;;;;;;17.30;4.25;;;;;;;;;;5034339;28;20459;-88
2022/06/19 17:56:40;;;;;;;16.40;3.90;;;;;;;;;;5071727;28;20048;-90
2022/06/19 17:59:20;;;;;;;19.20;3.53;;;;;;;;;;5059383;28;20080;-87
2022/06/19 18:01:54;;;;;;;;;;;;;;;;;;5076607;28;20021;-88
2022/06/19 18:04:30;;;;;;;23.98;4.57;;;;;;;;;;5035353;28;19912;-86
2022/06/19 18:07:02;;;;;;;10.57;4.07;;;;;;;;;;5035296;28;20029;-88
2022/06/19 18:09:37;;;;;;;22.17;4.28;;;;;;;;;;5053547;28;20029;-87
2022/06/19 18:12:31;;;;;;;16.90;4.00;;;;;;;;;;5052249;28;20226;-88
2022/06/19 18:15:01;;;;;;;15.85;4.22;;;;;;;;;;5053688;28;20021;-87
2022/06/19 18:20:23;;;;;;;10.73;4.15;;;;;;;;;;5054076;28;20043;-88
2022/06/19 18:22:49;;;;;;;25.60;4.07;;;;;;;;;;5055066;28;20029;-88
2022/06/19 18:25:18;;;;;;;12.45;4.50;;;;;;;;;;5054465;28;20106;-88
2022/06/19 18:27:45;;;;;;;16.10;4.47;;;;;;;;;;5038317;28;20032;-87
2022/06/19 18:30:21;;;;;;;18.55;4.47;;;;;;;;;;5039344;28;20025;-87
2022/06/19 18:32:52;;;;;;;17.55;4.85;;;;;;;;;;5067230;28;20017;-88
2022/06/19 18:35:20;;;;;;;19.58;5.07;;;;;;;;;;5069430;28;20040;-87
2022/06/19 18:38:05;;;;;;;9.75;3.50;;;;;;;;;;5053487;28;20029;-87
2022/06/19 18:40:34;;;;;;;15.23;4.72;;;;;;;;;;5037955;28;20386;-87
2022/06/19 18:43:12;;;;;;;16.83;4.65;;;;;;;;;;5020812;28;20028;-87
2022/06/19 18:45:38;;;;;;;16.15;4.40;;;;;;;;;;5026252;28;20017;-88
2022/06/19 18:48:05;;;;;;;15.55;3.95;;;;;;;;;;5040363;28;20021;-87
2022/06/19 18:50:33;;;;;;;12.60;4.07;;;;;;;;;;5040052;28;20029;-87
2022/06/19 18:53:03;;;;;;;13.75;5.18;;;;;;;;;;5057855;28;20091;-86
2022/06/19 18:55:40;;;;;;;12.13;4.73;;;;;;;;;;5055596;28;20381;-87
2022/06/19 18:58:26;;;;;;;16.73;5.03;;;;;;;;;;5053605;28;20033;-87
2022/06/19 19:00:57;;;;;;;22.67;5.55;;;;;;;;;;5055663;28;20646;-86
2022/06/19 19:03:40;;;;;;;20.40;4.55;;;;;;;;;;5056017;28;20032;-87
2022/06/19 19:06:06;;;;;;;13.80;4.88;;;;;;;;;;5046822;28;20028;-87
2022/06/19 19:08:44;;;;;;;18.90;5.18;;;;;;;;;;5037869;28;20060;-87
2022/06/19 19:11:10;;;;;;;15.32;4.22;;;;;;;;;;5036283;28;20031;-88
2022/06/19 19:13:41;;;;;;;14.07;5.10;;;;;;;;;;5054122;28;20082;-87
2022/06/19 19:16:26;;;;;;;20.65;4.97;;;;;;;;;;5035985;28;20041;-88
2022/06/19 19:18:58;;;;;;;21.42;4.10;;;;;;;;;;5019912;28;20100;-90
2022/06/19 19:21:30;;;;;;;18.40;4.90;;;;;;;;;;5033866;28;20503;-90
2022/06/19 19:23:57;;;;;;;14.27;4.90;;;;;;;;;;5034175;28;20034;-89